Time,TemperatureF,DewpointF,PressureIn,WindDirection,WindDirectionDegrees,WindSpeedMPH,WindSpeedGustMPH,Humidity,HourlyPrecipIn,Conditions,Clouds,dailyrainin,SoftwareType,DateUTC
2013-01-25 00:00:00,37.0,34.0,29.96,North,-999,-999.0,-999.0,88,-99.99,,,-99.99,,2013-01-25 00:00:00,
2013-01-25 00:41:00,37.0,34.0,29.96,North,-999,-999.0,-999.0,88,-99.99,,,-99.99,,2013-01-25 00:41:00,
2013-01-25 00:51:00,37.0,34.0,29.96,North,-999,-999.0,-999.0,88,-99.99,,,-99.99,,2013-01-25 00:51:00,
2013-01-25 01:00:00,36.0,33.0,30.01,North,-999,-999.0,-999.0,90,-99.99,,,-99.99,,2013-01-25 01:00:00,
2013-01-25 01:41:00,36.0,33.0,30.01,North,-999,-999.0,-999.0,90,-99.99,,,-99.99,,2013-01-25 01:41:00,
2013-01-25 01:51:00,36.0,33.0,30.01,North,-999,-999.0,-999.0,90,-99.99,,,-99.99,,2013-01-25 01:51:00,
2013-01-25 03:00:00,36.0,33.0,29.93,North,-999,-999.0,-999.0,89,-99.99,,,-99.99,,2013-01-25 03:00:00,
2013-01-25 03:41:00,36.0,33.0,29.93,North,-999,-999.0,-999.0,89,-99.99,,,-99.99,,2013-01-25 03:41:00,
2013-01-25 03:52:00,36.0,33.0,29.93,North,-999,-999.0,-999.0,89,-99.99,,,-99.99,,2013-01-25 03:52:00,
2013-01-25 04:41:00,41.0,39.0,29.93,North,-999,-999.0,-999.0,92,-99.99,,,-99.99,,2013-01-25 04:41:00,
2013-01-25 04:51:00,41.0,39.0,29.93,North,-999,-999.0,-999.0,92,-99.99,,,-99.99,,2013-01-25 04:51:00,
2013-01-25 05:00:00,46.0,42.0,29.85,North,-999,-999.0,-999.0,85,-99.99,,,-99.99,,2013-01-25 05:00:00,
2013-01-25 05:42:00,46.0,42.0,29.85,North,-999,-999.0,-999.0,85,-99.99,,,-99.99,,2013-01-25 05:42:00,
2013-01-25 05:51:00,46.0,42.0,29.85,North,-999,-999.0,-999.0,85,-99.99,,,-99.99,,2013-01-25 05:51:00,
2013-01-25 06:00:00,46.0,43.0,29.79,North,-999,-999.0,-999.0,87,-99.99,,,-99.99,,2013-01-25 06:00:00,
2013-01-25 06:41:00,46.0,43.0,29.79,North,-999,-999.0,-999.0,87,-99.99,,,-99.99,,2013-01-25 06:41:00,
2013-01-25 06:51:00,46.0,43.0,29.79,North,-999,-999.0,-999.0,87,-99.99,,,-99.99,,2013-01-25 06:51:00,
2013-01-25 07:00:00,45.0,43.0,29.82,North,-999,-999.0,-999.0,92,-99.99,,,-99.99,,2013-01-25 07:00:00,
2013-01-25 07:41:00,45.0,43.0,29.82,North,-999,-999.0,-999.0,92,-99.99,,,-99.99,,2013-01-25 07:41:00,
2013-01-25 07:51:00,45.0,43.0,29.82,North,-999,-999.0,-999.0,92,-99.99,,,-99.99,,2013-01-25 07:51:00,
2013-01-25 08:00:00,45.0,43.0,29.79,North,-999,-999.0,-999.0,92,-99.99,,,-99.99,,2013-01-25 08:00:00,
2013-01-25 08:41:00,45.0,43.0,29.79,North,-999,-999.0,-999.0,92,-99.99,,,-99.99,,2013-01-25 08:41:00,
2013-01-25 08:51:00,45.0,43.0,29.79,North,-999,-999.0,-999.0,92,-99.99,,,-99.99,,2013-01-25 08:51:00,